createdAt,value
2022-08-10T00:00:56.766Z,3.42
2022-08-10T00:03:23.595Z,3.13
2022-08-10T00:05:52.816Z,3.20
2022-08-10T00:08:23.530Z,3.63
2022-08-10T00:10:55.813Z,3.55
2022-08-10T00:13:23.854Z,3.35
2022-08-10T00:15:54.237Z,3.67
2022-08-10T00:18:31.499Z,3.75
2022-08-10T00:21:04.628Z,3.60
2022-08-10T00:23:33.042Z,3.50
2022-08-10T00:26:00.203Z,3.35
2022-08-10T00:28:26.983Z,3.47
2022-08-10T00:30:54.005Z,3.25
2022-08-10T00:33:20.904Z,3.35
2022-08-10T00:35:47.893Z,3.60
2022-08-10T00:38:14.534Z,3.25
2022-08-10T00:40:41.063Z,3.28
2022-08-10T00:43:07.916Z,3.33
2022-08-10T00:45:35.458Z,3.60
2022-08-10T00:48:02.283Z,3.92
2022-08-10T00:50:29.099Z,3.13
2022-08-10T00:52:55.974Z,3.33
2022-08-10T00:55:22.493Z,3.42
2022-08-10T00:57:55.170Z,3.17
2022-08-10T01:00:25.091Z,3.67
2022-08-10T01:02:51.941Z,3.13
2022-08-10T01:05:20.357Z,3.58
2022-08-10T01:07:50.299Z,3.28
2022-08-10T01:10:38.874Z,3.50
2022-08-10T01:13:22.218Z,3.97
2022-08-10T01:16:04.350Z,3.20
2022-08-10T01:18:53.815Z,3.15
2022-08-10T01:21:54.307Z,3.40
2022-08-10T01:24:53.757Z,3.35
2022-08-10T01:27:38.478Z,3.15
2022-08-10T01:30:09.811Z,2.93
2022-08-10T01:32:55.219Z,3.15
2022-08-10T01:35:28.544Z,3.38
2022-08-10T01:38:03.578Z,3.30
2022-08-10T01:40:34.031Z,3.22
2022-08-10T01:43:08.344Z,3.10
2022-08-10T01:45:44.718Z,3.58
2022-08-10T01:48:28.642Z,3.40
2022-08-10T01:51:09.178Z,3.00
2022-08-10T01:53:41.918Z,2.83
2022-08-10T01:56:12.554Z,3.08
2022-08-10T01:58:40.470Z,3.40
2022-08-10T02:01:11.027Z,3.13
2022-08-10T02:04:05.105Z,3.50
2022-08-10T02:06:39.857Z,3.13
2022-08-10T02:09:07.963Z,3.28
2022-08-10T02:12:06.705Z,3.50
2022-08-10T02:14:34.034Z,2.85
2022-08-10T02:17:58.125Z,3.20
2022-08-10T02:20:16.736Z,3.08
2022-08-10T02:22:45.373Z,2.97
2022-08-10T02:25:42.643Z,3.67
2022-08-10T02:28:03.202Z,3.58
2022-08-10T02:30:30.939Z,3.58
2022-08-10T02:32:59.054Z,3.30
2022-08-10T02:35:27.916Z,3.50
2022-08-10T02:38:10.030Z,3.20
2022-08-10T02:45:15.100Z,3.50
2022-08-10T02:45:20.124Z,3.22
2022-08-10T02:46:48.745Z,3.28
2022-08-10T02:49:27.470Z,3.28
2022-08-10T02:52:06.408Z,3.42
2022-08-10T02:54:43.212Z,3.15
2022-08-10T02:57:16.312Z,3.83
2022-08-10T02:59:50.226Z,3.28
2022-08-10T03:02:35.114Z,3.40
2022-08-10T03:05:06.852Z,3.60
2022-08-10T03:07:46.143Z,3.42
2022-08-10T03:10:17.326Z,3.60
2022-08-10T03:12:49.853Z,3.72
2022-08-10T03:15:18.479Z,3.63
2022-08-10T03:17:57.780Z,3.22
2022-08-10T03:20:37.831Z,3.17
2022-08-10T03:23:11.294Z,3.42
2022-08-10T03:25:38.766Z,3.40
2022-08-10T03:28:06.708Z,3.70
2022-08-10T03:30:34.575Z,3.40
2022-08-10T03:33:04.024Z,3.50
2022-08-10T03:35:31.394Z,3.90
2022-08-10T03:38:00.160Z,3.50
2022-08-10T03:40:45.602Z,3.47
2022-08-10T03:43:17.410Z,4.00
2022-08-10T03:45:54.135Z,3.50
2022-08-10T03:48:44.762Z,3.58
2022-08-10T03:51:14.540Z,3.60
2022-08-10T03:54:03.561Z,3.90
2022-08-10T03:56:32.060Z,3.72
2022-08-10T03:59:00.391Z,4.22
2022-08-10T04:02:46.746Z,3.63
2022-08-10T04:04:19.290Z,3.70
2022-08-10T04:06:51.504Z,3.83
2022-08-10T04:09:29.769Z,4.00
2022-08-10T04:12:11.210Z,3.85
2022-08-10T04:14:49.058Z,3.80
2022-08-10T04:17:16.885Z,4.10
2022-08-10T04:19:49.098Z,3.85
2022-08-10T04:22:19.034Z,3.90
2022-08-10T04:24:48.315Z,4.18
2022-08-10T04:27:15.633Z,3.92
2022-08-10T04:29:43.571Z,4.35
2022-08-10T04:32:11.013Z,3.90
2022-08-10T04:34:42.019Z,3.72
2022-08-10T04:37:10.857Z,3.75
2022-08-10T04:39:39.652Z,4.05
2022-08-10T04:42:06.994Z,3.60
2022-08-10T04:44:34.283Z,4.35
2022-08-10T04:47:00.770Z,3.80
2022-08-10T04:49:55.679Z,3.40
2022-08-10T04:52:14.450Z,3.80
2022-08-10T04:54:41.675Z,4.00
2022-08-10T04:57:09.088Z,3.72
2022-08-10T04:59:36.408Z,3.80
2022-08-10T05:02:29.770Z,3.85
2022-08-10T05:04:49.726Z,3.75
2022-08-10T05:07:18.362Z,3.28
2022-08-10T05:10:02.394Z,3.90
2022-08-10T05:12:37.445Z,4.13
2022-08-10T05:15:09.843Z,4.05
2022-08-10T05:17:40.152Z,3.67
2022-08-10T05:20:09.415Z,4.22
2022-08-10T05:22:41.693Z,3.55
2022-08-10T05:25:14.245Z,3.53
2022-08-10T05:27:41.811Z,3.50
2022-08-10T05:30:11.372Z,3.00
2022-08-10T05:32:59.131Z,2.67
2022-08-10T05:35:28.888Z,3.15
2022-08-10T05:38:17.045Z,2.92
2022-08-10T05:40:47.390Z,3.40
2022-08-10T05:43:20.548Z,3.40
2022-08-10T05:46:18.084Z,3.47
2022-08-10T05:48:55.362Z,2.83
2022-08-10T05:51:25.330Z,2.88
2022-08-10T05:54:02.154Z,3.72
2022-08-10T05:56:53.891Z,3.70
2022-08-10T06:00:31.185Z,2.97
2022-08-10T06:02:33.507Z,3.35
2022-08-10T06:05:05.746Z,3.28
2022-08-10T06:07:33.186Z,3.28
2022-08-10T06:10:01.946Z,3.50
2022-08-10T06:12:30.676Z,3.70
2022-08-10T06:15:05.848Z,3.50
2022-08-10T06:17:38.366Z,3.75
2022-08-10T06:20:05.920Z,3.72
2022-08-10T06:22:33.334Z,3.72
2022-08-10T06:27:50.741Z,3.63
2022-08-10T06:30:20.019Z,3.08
2022-08-10T06:32:52.522Z,3.03
2022-08-10T06:35:20.666Z,3.58
2022-08-10T06:37:50.914Z,3.60
2022-08-10T06:40:19.561Z,3.08
2022-08-10T06:42:48.785Z,3.28
2022-08-10T06:45:31.296Z,3.20
2022-08-10T06:48:17.985Z,3.00
2022-08-10T06:50:58.035Z,3.15
2022-08-10T06:53:52.825Z,2.90
2022-08-10T06:56:36.829Z,3.35
2022-08-10T06:59:24.504Z,2.95
2022-08-10T07:01:57.474Z,3.33
2022-08-10T07:04:33.745Z,3.03
2022-08-10T07:07:06.533Z,3.10
2022-08-10T07:09:38.151Z,3.03
2022-08-10T07:12:09.623Z,3.35
2022-08-10T07:14:42.465Z,2.90
2022-08-10T07:17:19.585Z,2.95
2022-08-10T07:19:52.412Z,3.42
2022-08-10T07:23:01.504Z,2.83
2022-08-10T07:25:22.397Z,3.55
2022-08-10T07:27:59.617Z,3.05
2022-08-10T07:30:30.370Z,2.92
2022-08-10T07:32:57.565Z,3.22
2022-08-10T07:35:27.012Z,3.38
2022-08-10T07:37:55.003Z,2.78
2022-08-10T07:40:23.414Z,2.90
2022-08-10T07:42:53.915Z,2.85
2022-08-10T07:45:20.673Z,3.20
2022-08-10T07:48:05.147Z,2.97
2022-08-10T07:50:36.252Z,3.08
2022-08-10T07:53:05.001Z,2.85
2022-08-10T07:56:03.407Z,3.13
2022-08-10T07:58:25.124Z,2.85
2022-08-10T08:00:53.862Z,3.00
2022-08-10T08:03:25.456Z,2.70
2022-08-10T08:05:59.376Z,3.00
2022-08-10T08:08:31.982Z,2.85
2022-08-10T08:10:59.570Z,3.08
2022-08-10T08:13:29.411Z,3.00
2022-08-10T08:16:18.399Z,2.60
2022-08-10T08:18:58.366Z,3.00
2022-08-10T08:24:08.953Z,2.70
2022-08-10T08:24:32.598Z,3.08
2022-08-10T08:27:05.668Z,2.92
2022-08-10T08:29:35.301Z,3.00
2022-08-10T08:32:04.691Z,2.88
2022-08-10T08:34:37.877Z,2.95
2022-08-10T08:37:07.254Z,2.67
2022-08-10T08:39:35.975Z,2.78
2022-08-10T08:42:24.202Z,2.65
2022-08-10T08:45:25.167Z,2.97
2022-08-10T08:48:06.446Z,3.15
2022-08-10T08:51:08.658Z,2.60
2022-08-10T08:54:01.838Z,2.63
2022-08-10T08:56:50.428Z,2.50
2022-08-10T08:59:47.480Z,2.20
2022-08-10T09:02:54.841Z,2.80
2022-08-10T09:05:31.112Z,2.10
2022-08-10T09:08:47.836Z,2.42
2022-08-10T09:11:52.243Z,2.28
2022-08-10T09:14:40.890Z,2.40
2022-08-10T09:17:36.378Z,2.22
2022-08-10T09:20:19.197Z,2.10
2022-08-10T09:23:06.503Z,2.70
2022-08-10T09:25:36.200Z,2.25
2022-08-10T09:28:26.650Z,2.40
2022-08-10T09:31:22.004Z,2.42
2022-08-10T09:36:20.696Z,2.00
2022-08-10T09:37:24.428Z,2.50
2022-08-10T09:41:03.981Z,2.90
2022-08-10T09:44:05.754Z,2.35
2022-08-10T09:46:46.362Z,2.72
2022-08-10T09:49:53.408Z,2.50
2022-08-10T09:52:29.502Z,2.42
2022-08-10T09:55:08.425Z,2.33
2022-08-10T09:57:46.576Z,2.42
2022-08-10T10:00:20.388Z,2.72
2022-08-10T10:03:08.983Z,2.38
2022-08-10T10:05:52.558Z,2.70
2022-08-10T10:08:22.152Z,2.35
2022-08-10T10:11:03.110Z,2.47
2022-08-10T10:14:02.125Z,2.60
2022-08-10T10:16:52.497Z,2.40
2022-08-10T10:19:22.068Z,2.40
2022-08-10T10:22:08.267Z,2.53
2022-08-10T10:25:00.531Z,2.35
2022-08-10T10:27:48.062Z,2.60
2022-08-10T10:30:17.188Z,2.30
2022-08-10T10:33:08.782Z,2.28
2022-08-10T10:35:48.941Z,2.20
2022-08-10T10:38:18.208Z,2.60
2022-08-10T10:42:03.372Z,2.53
2022-08-10T10:44:51.098Z,2.65
2022-08-10T10:47:42.265Z,2.30
2022-08-10T10:50:15.701Z,2.30
2022-08-10T10:53:02.932Z,2.50
2022-08-10T10:56:13.834Z,2.40
2022-08-10T10:59:33.457Z,2.35
2022-08-10T11:02:15.357Z,2.17
2022-08-10T11:05:14.938Z,2.15
2022-08-10T11:07:53.418Z,2.20
2022-08-10T11:10:46.887Z,1.80
2022-08-10T11:14:27.499Z,2.28
2022-08-10T11:16:55.813Z,2.17
2022-08-10T11:20:00.490Z,2.13
2022-08-10T11:22:44.580Z,1.95
2022-08-10T11:25:25.554Z,2.13
2022-08-10T11:28:07.554Z,1.95
2022-08-10T11:30:46.356Z,2.30
2022-08-10T11:34:03.913Z,2.13
2022-08-10T11:36:49.134Z,1.98
2022-08-10T11:39:49.770Z,2.03
2022-08-10T11:42:37.802Z,2.33
2022-08-10T11:45:11.910Z,2.20
2022-08-10T11:47:56.877Z,2.17
2022-08-10T11:53:19.591Z,1.90
2022-08-10T11:55:52.686Z,2.22
2022-08-10T11:58:41.005Z,2.08
2022-08-10T12:01:10.834Z,2.15
2022-08-10T12:03:41.540Z,2.50
2022-08-10T12:06:13.453Z,1.75
2022-08-10T12:10:05.323Z,2.10
2022-08-10T12:11:34.177Z,1.75
2022-08-10T12:14:21.903Z,1.92
2022-08-10T12:17:13.334Z,2.03
2022-08-10T12:19:59.431Z,2.00
2022-08-10T12:22:56.955Z,2.05
2022-08-10T12:25:56.841Z,1.88
2022-08-10T12:28:55.353Z,2.00
2022-08-10T12:31:30.123Z,1.90
2022-08-10T12:34:14.515Z,1.90
2022-08-10T12:36:51.493Z,2.13
2022-08-10T12:39:30.998Z,2.55
2022-08-10T12:42:06.231Z,2.25
2022-08-10T12:44:44.895Z,1.85
2022-08-10T12:47:28.089Z,2.13
2022-08-10T12:50:30.709Z,1.92
2022-08-10T12:52:55.309Z,2.20
2022-08-10T12:55:23.363Z,2.00
2022-08-10T12:57:56.266Z,1.95
2022-08-10T13:00:34.230Z,2.30
2022-08-10T13:03:03.228Z,1.90
2022-08-10T13:05:54.909Z,2.25
2022-08-10T13:08:40.389Z,2.20
2022-08-10T13:11:20.200Z,1.95
2022-08-10T13:14:07.684Z,1.65
2022-08-10T13:16:34.837Z,2.10
2022-08-10T13:19:03.846Z,1.98
2022-08-10T13:21:35.857Z,2.13
2022-08-10T13:24:14.869Z,1.70
2022-08-10T13:27:26.884Z,2.03
2022-08-10T13:30:01.549Z,2.10
2022-08-10T13:32:33.233Z,2.05
2022-08-10T13:35:06.912Z,2.15
2022-08-10T13:37:36.048Z,1.80
2022-08-10T13:40:05.336Z,1.80
2022-08-10T13:42:37.038Z,2.10
2022-08-10T13:45:10.087Z,2.00
2022-08-10T13:47:48.155Z,1.85
2022-08-10T13:50:20.872Z,1.90
2022-08-10T13:53:01.767Z,2.00
2022-08-10T13:55:53.269Z,2.15
2022-08-10T13:58:22.180Z,2.08
2022-08-10T14:00:49.715Z,2.20
2022-08-10T14:03:17.586Z,2.08
2022-08-10T14:05:50.728Z,2.05
2022-08-10T14:08:25.800Z,1.98
2022-08-10T14:11:08.507Z,2.25
2022-08-10T14:13:43.361Z,2.17
2022-08-10T14:16:11.773Z,2.00
2022-08-10T14:18:42.012Z,2.13
2022-08-10T14:21:08.745Z,1.80
2022-08-10T14:23:52.260Z,2.20
2022-08-10T14:26:23.910Z,2.33
2022-08-10T14:28:55.113Z,1.80
2022-08-10T14:31:29.032Z,2.17
2022-08-10T14:33:58.348Z,1.90
2022-08-10T14:36:33.141Z,1.90
2022-08-10T14:39:02.406Z,2.25
2022-08-10T14:42:04.456Z,2.03
2022-08-10T14:44:20.912Z,2.30
2022-08-10T14:46:52.163Z,2.17
2022-08-10T14:49:25.291Z,1.90
2022-08-10T14:54:29.556Z,1.90
2022-08-10T14:57:11.290Z,2.05
2022-08-10T15:00:25.269Z,2.35
2022-08-10T15:02:39.932Z,2.15
2022-08-10T15:05:22.077Z,1.92
2022-08-10T15:07:58.940Z,2.17
2022-08-10T15:10:27.132Z,2.42
2022-08-10T15:12:58.915Z,2.05
2022-08-10T15:15:29.137Z,2.20
2022-08-10T15:17:58.300Z,2.60
2022-08-10T15:20:27.899Z,2.05
2022-08-10T15:23:03.204Z,2.22
2022-08-10T15:28:04.948Z,2.40
2022-08-10T15:30:39.585Z,1.80
2022-08-10T15:33:56.665Z,2.05
2022-08-10T15:36:38.901Z,2.33
2022-08-10T15:40:22.337Z,2.20
2022-08-10T15:42:07.447Z,2.03
2022-08-10T15:44:43.239Z,2.30
2022-08-10T15:47:15.673Z,2.20
2022-08-10T15:50:04.471Z,2.47
2022-08-10T15:53:01.126Z,2.00
2022-08-10T15:55:44.217Z,2.30
2022-08-10T15:58:39.210Z,2.30
2022-08-10T16:02:04.013Z,2.22
2022-08-10T16:04:50.176Z,2.10
2022-08-10T16:07:21.740Z,2.38
2022-08-10T16:10:23.039Z,2.30
2022-08-10T16:12:59.622Z,2.42
2022-08-10T16:15:29.259Z,2.47
2022-08-10T16:18:03.850Z,2.20
2022-08-10T16:23:34.213Z,2.40
2022-08-10T16:26:15.663Z,1.90
2022-08-10T16:28:58.603Z,2.28
2022-08-10T16:31:29.108Z,2.20
2022-08-10T16:33:59.052Z,2.70
2022-08-10T16:36:42.458Z,2.50
2022-08-10T16:39:15.568Z,2.45
2022-08-10T16:42:03.156Z,5.47
2022-08-10T16:44:39.307Z,3.10
2022-08-10T16:47:09.025Z,2.37
2022-08-10T16:49:38.615Z,2.10
2022-08-10T16:52:06.225Z,2.38
2022-08-10T16:54:36.168Z,2.78
2022-08-10T16:57:04.577Z,2.10
2022-08-10T16:59:36.836Z,2.28
2022-08-10T17:02:06.422Z,2.47
2022-08-10T17:04:36.409Z,2.10
2022-08-10T17:07:14.638Z,2.17
2022-08-10T17:09:48.247Z,2.05
2022-08-10T17:12:18.977Z,2.30
2022-08-10T17:14:46.269Z,2.53
2022-08-10T17:17:27.717Z,2.17
2022-08-10T17:20:30.601Z,2.05
2022-08-10T17:22:54.194Z,2.25
2022-08-10T17:25:25.465Z,2.40
2022-08-10T17:28:13.744Z,2.38
2022-08-10T17:31:24.060Z,2.47
2022-08-10T17:34:01.460Z,2.20
2022-08-10T17:36:36.030Z,2.22
2022-08-10T17:39:04.786Z,2.25
2022-08-10T17:41:36.584Z,2.15
2022-08-10T17:44:05.919Z,2.10
2022-08-10T17:46:36.348Z,2.60
2022-08-10T17:49:07.795Z,2.13
2022-08-10T17:51:36.831Z,1.98
2022-08-10T17:54:09.161Z,2.15
2022-08-10T17:56:37.921Z,2.47
2022-08-10T17:59:17.077Z,2.58
2022-08-10T18:01:58.704Z,2.35
2022-08-10T18:04:35.550Z,2.20
2022-08-10T18:07:09.794Z,2.38
2022-08-10T18:09:44.514Z,2.90
2022-08-10T18:14:50.070Z,2.30
2022-08-10T18:17:33.875Z,2.20
2022-08-10T18:20:07.970Z,2.42
2022-08-10T18:22:43.852Z,2.40
2022-08-10T18:25:17.511Z,2.30
2022-08-10T18:28:00.910Z,1.83
2022-08-10T18:30:30.160Z,2.40
2022-08-10T18:33:04.487Z,2.25
2022-08-10T18:35:34.992Z,2.20
2022-08-10T18:38:02.882Z,2.03
2022-08-10T18:40:36.326Z,2.00
2022-08-10T18:44:04.443Z,1.97
2022-08-10T18:45:58.586Z,2.00
2022-08-10T18:48:37.201Z,2.30
2022-08-10T18:51:06.300Z,2.30
2022-08-10T18:53:48.064Z,2.33
2022-08-10T18:56:20.789Z,2.47
2022-08-10T18:59:12.384Z,2.40
2022-08-10T19:02:01.741Z,2.05
2022-08-10T19:04:42.003Z,2.08
2022-08-10T19:07:36.082Z,2.58
2022-08-10T19:10:24.575Z,2.30
2022-08-10T19:13:04.051Z,2.20
2022-08-10T19:15:30.552Z,2.13
2022-08-10T19:18:31.566Z,2.30
2022-08-10T19:21:37.510Z,2.30
2022-08-10T19:26:51.908Z,2.25
2022-08-10T19:30:07.911Z,2.30
2022-08-10T19:32:43.961Z,2.35
2022-08-10T19:36:03.803Z,2.20
2022-08-10T19:38:33.959Z,2.30
2022-08-10T19:41:44.453Z,2.33
2022-08-10T19:44:51.246Z,2.75
2022-08-10T19:47:24.425Z,2.20
2022-08-10T19:50:09.143Z,2.30
2022-08-10T19:52:53.882Z,2.30
2022-08-10T19:55:39.024Z,2.50
2022-08-10T19:58:32.312Z,2.63
2022-08-10T20:01:01.620Z,2.53
2022-08-10T20:03:41.631Z,2.33
2022-08-10T20:06:20.045Z,2.50
2022-08-10T20:08:53.057Z,2.30
2022-08-10T20:11:45.531Z,2.20
2022-08-10T20:14:25.487Z,2.53
2022-08-10T20:17:00.267Z,2.30
2022-08-10T20:20:02.971Z,2.40
2022-08-10T20:22:35.815Z,2.50
2022-08-10T20:25:14.206Z,2.50
2022-08-10T20:28:01.633Z,2.95
2022-08-10T20:30:33.226Z,2.25
2022-08-10T20:33:17.775Z,2.78
2022-08-10T20:35:47.542Z,2.22
2022-08-10T20:38:30.141Z,2.65
2022-08-10T20:41:24.709Z,2.58
2022-08-10T20:44:12.372Z,2.20
2022-08-10T20:47:11.838Z,2.50
2022-08-10T20:49:52.340Z,2.47
2022-08-10T20:52:24.691Z,2.40
2022-08-10T20:54:57.898Z,2.47
2022-08-10T20:58:04.793Z,2.58
2022-08-10T21:00:54.261Z,2.47
2022-08-10T21:03:33.783Z,2.53
2022-08-10T21:06:43.250Z,3.00
2022-08-10T21:09:58.667Z,2.20
2022-08-10T21:12:46.403Z,2.40
2022-08-10T21:15:41.584Z,2.28
2022-08-10T21:23:38.821Z,1.88
2022-08-10T21:25:41.617Z,2.60
2022-08-10T21:26:15.276Z,2.50
2022-08-10T21:29:10.024Z,2.33
2022-08-10T21:31:58.851Z,2.17
2022-08-10T21:34:54.203Z,2.47
2022-08-10T21:37:56.710Z,2.40
2022-08-10T21:41:18.142Z,2.20
2022-08-10T21:44:08.932Z,2.38
2022-08-10T21:47:38.066Z,2.58
2022-08-10T21:50:28.578Z,2.53
2022-08-10T21:53:43.773Z,2.60
2022-08-10T21:56:55.369Z,2.63
2022-08-10T21:59:56.389Z,2.50
2022-08-10T22:02:49.875Z,2.78
2022-08-10T22:05:42.667Z,2.30
2022-08-10T22:08:28.983Z,2.90
2022-08-10T22:11:17.319Z,2.67
2022-08-10T22:14:09.540Z,2.70
2022-08-10T22:17:03.668Z,2.10
2022-08-10T22:19:51.943Z,2.40
2022-08-10T22:22:56.310Z,2.75
2022-08-10T22:25:53.879Z,2.40
2022-08-10T22:28:39.205Z,2.72
2022-08-10T22:34:43.573Z,2.55
2022-08-10T22:37:45.656Z,2.47
2022-08-10T22:40:36.179Z,2.63
2022-08-10T22:43:35.834Z,2.35
2022-08-10T22:46:28.343Z,2.45
2022-08-10T22:49:01.389Z,2.58
2022-08-10T22:51:43.416Z,2.30
2022-08-10T22:54:41.572Z,2.40
2022-08-10T22:57:31.767Z,2.58
2022-08-10T22:59:59.077Z,2.45
2022-08-10T23:02:32.329Z,2.60
2022-08-10T23:05:11.110Z,2.47
2022-08-10T23:07:58.207Z,2.55
2022-08-10T23:10:29.145Z,2.30
2022-08-10T23:13:24.380Z,2.63
2022-08-10T23:16:32.231Z,2.80
2022-08-10T23:19:11.405Z,2.67
2022-08-10T23:22:03.408Z,2.72
2022-08-10T23:25:11.525Z,2.60
2022-08-10T23:27:40.632Z,2.50
2022-08-10T23:30:17.447Z,2.42
2022-08-10T23:32:49.162Z,2.83
2022-08-10T23:36:13.019Z,2.42
2022-08-10T23:38:07.007Z,2.67
2022-08-10T23:40:35.212Z,2.80
2022-08-10T23:43:03.168Z,2.80
2022-08-10T23:45:52.593Z,2.80
2022-08-10T23:48:24.898Z,2.75
2022-08-10T23:50:59.677Z,2.80
2022-08-10T23:56:00.326Z,2.97
2022-08-10T23:58:34.188Z,2.58
